createdAt,value
2022-09-11T00:02:25.374Z,24.00
2022-09-11T00:04:55.487Z,23.40
2022-09-11T00:07:33.524Z,25.70
2022-09-11T00:10:01.367Z,24.07
2022-09-11T00:12:40.322Z,28.87
2022-09-11T00:15:11.461Z,24.00
2022-09-11T00:17:42.135Z,27.80
2022-09-11T00:20:10.847Z,24.67
2022-09-11T00:22:40.009Z,25.30
2022-09-11T00:25:08.402Z,25.30
2022-09-11T00:27:36.244Z,25.70
2022-09-11T00:30:04.278Z,24.63
2022-09-11T00:32:33.308Z,26.50
2022-09-11T00:35:01.138Z,24.07
2022-09-11T00:37:31.246Z,28.10
2022-09-11T00:40:02.619Z,25.43
2022-09-11T00:42:30.526Z,25.90
2022-09-11T00:45:01.657Z,22.30
2022-09-11T00:47:33.360Z,26.57
2022-09-11T00:50:20.373Z,26.63
2022-09-11T00:52:55.179Z,22.30
2022-09-11T00:55:36.044Z,22.97
2022-09-11T00:58:08.803Z,23.33
2022-09-11T01:00:39.332Z,22.53
2022-09-11T01:03:07.161Z,22.50
2022-09-11T01:05:38.003Z,24.77
2022-09-11T01:08:08.818Z,23.30
2022-09-11T01:10:49.639Z,23.40
2022-09-11T01:13:28.912Z,21.40
2022-09-11T01:16:05.161Z,22.67
2022-09-11T01:18:39.302Z,21.43
2022-09-11T01:21:35.582Z,21.10
2022-09-11T01:24:17.383Z,20.13
2022-09-11T01:27:16.895Z,21.43
2022-09-11T01:29:53.784Z,22.40
2022-09-11T01:32:26.898Z,22.60
2022-09-11T01:35:04.662Z,23.30
2022-09-11T01:37:43.538Z,23.57
2022-09-11T01:40:19.802Z,24.83
2022-09-11T01:42:59.456Z,24.20
2022-09-11T01:45:32.107Z,23.53
2022-09-11T01:48:02.290Z,24.97
2022-09-11T01:50:31.512Z,23.60
2022-09-11T01:53:03.924Z,25.40
2022-09-11T01:55:36.390Z,22.77
2022-09-11T01:58:08.557Z,22.90
2022-09-11T02:00:41.081Z,27.43
2022-09-11T02:03:22.903Z,23.70
2022-09-11T02:05:56.262Z,28.77
2022-09-11T02:08:39.438Z,25.93
2022-09-11T02:11:15.801Z,26.70
2022-09-11T02:13:52.890Z,24.27
2022-09-11T02:16:30.933Z,26.80
2022-09-11T02:19:02.427Z,24.37
2022-09-11T02:21:33.242Z,27.73
2022-09-11T02:24:01.433Z,27.70
2022-09-11T02:26:39.507Z,26.63
2022-09-11T02:29:10.397Z,28.07
2022-09-11T02:31:46.152Z,24.93
2022-09-11T02:34:15.044Z,25.07
2022-09-11T02:36:59.005Z,24.97
2022-09-11T02:39:43.934Z,25.57
2022-09-11T02:42:31.435Z,26.20
2022-09-11T02:45:10.797Z,26.47
2022-09-11T02:47:45.994Z,27.07
2022-09-11T02:50:23.673Z,25.73
2022-09-11T02:53:02.416Z,25.57
2022-09-11T02:55:41.412Z,27.23
2022-09-11T02:58:17.322Z,25.93
2022-09-11T03:00:48.025Z,23.63
2022-09-11T03:03:18.226Z,25.10
2022-09-11T03:05:49.059Z,28.77
2022-09-11T03:08:17.810Z,26.37
2022-09-11T03:10:46.655Z,25.33
2022-09-11T03:13:15.238Z,28.80
2022-09-11T03:15:46.087Z,27.50
2022-09-11T03:18:15.777Z,25.93
2022-09-11T03:20:47.801Z,28.53
2022-09-11T03:23:15.640Z,26.47
2022-09-11T03:25:43.459Z,28.57
2022-09-11T03:28:11.509Z,27.13
2022-09-11T03:30:43.430Z,28.50
2022-09-11T03:33:11.455Z,26.90
2022-09-11T03:35:41.756Z,25.50
2022-09-11T03:38:11.806Z,27.43
2022-09-11T03:40:40.363Z,27.13
2022-09-11T03:43:12.018Z,27.43
2022-09-11T03:45:39.925Z,26.83
2022-09-11T03:48:07.843Z,26.17
2022-09-11T03:50:35.744Z,26.23
2022-09-11T03:53:05.925Z,26.67
2022-09-11T03:55:37.383Z,22.77
2022-09-11T03:58:09.515Z,26.87
2022-09-11T04:00:39.789Z,28.13
2022-09-11T04:03:10.289Z,28.87
2022-09-11T04:05:42.016Z,28.57
2022-09-11T04:08:12.538Z,25.70
2022-09-11T04:10:41.686Z,26.40
2022-09-11T04:13:19.341Z,25.20
2022-09-11T04:15:53.272Z,24.07
2022-09-11T04:18:21.566Z,26.00
2022-09-11T04:20:49.372Z,28.30
2022-09-11T04:23:19.214Z,30.40
2022-09-11T04:25:56.296Z,31.67
2022-09-11T04:28:28.389Z,30.73
2022-09-11T04:30:58.710Z,28.17
2022-09-11T04:33:26.516Z,28.60
2022-09-11T04:35:54.314Z,28.27
2022-09-11T04:38:23.003Z,25.70
2022-09-11T04:40:53.051Z,28.27
2022-09-11T04:43:22.890Z,29.87
2022-09-11T04:45:52.876Z,28.00
2022-09-11T04:48:20.713Z,27.43
2022-09-11T04:50:48.489Z,28.50
2022-09-11T04:53:16.303Z,31.87
2022-09-11T04:55:44.115Z,32.70
2022-09-11T04:58:16.195Z,32.60
2022-09-11T05:00:44.030Z,33.43
2022-09-11T05:03:13.885Z,31.57
2022-09-11T05:05:41.692Z,28.50
2022-09-11T05:08:10.524Z,28.23
2022-09-11T05:10:46.263Z,32.10
2022-09-11T05:13:15.611Z,31.70
2022-09-11T05:15:45.805Z,31.50
2022-09-11T05:18:13.622Z,34.10
2022-09-11T05:20:41.524Z,34.70
2022-09-11T05:23:12.726Z,37.57
2022-09-11T05:25:40.765Z,37.50
2022-09-11T05:28:11.664Z,34.37
2022-09-11T05:30:42.917Z,40.83
2022-09-11T05:33:11.384Z,40.17
2022-09-11T05:35:39.186Z,39.80
2022-09-11T05:38:10.756Z,45.70
2022-09-11T05:40:43.852Z,38.00
2022-09-11T05:43:15.517Z,36.83
2022-09-11T05:45:55.478Z,37.10
2022-09-11T05:48:26.038Z,42.50
2022-09-11T05:50:54.135Z,42.10
2022-09-11T05:53:22.102Z,35.67
2022-09-11T05:55:53.721Z,38.20
2022-09-11T05:58:34.527Z,35.60
2022-09-11T06:01:17.962Z,37.80
2022-09-11T06:03:48.403Z,37.63
2022-09-11T06:06:17.807Z,33.80
2022-09-11T06:08:54.394Z,38.83
2022-09-11T06:11:36.926Z,38.00
2022-09-11T06:14:04.850Z,42.90
2022-09-11T06:16:35.144Z,35.60
2022-09-11T06:19:04.172Z,38.57
2022-09-11T06:21:31.956Z,36.40
2022-09-11T06:24:06.488Z,42.53
2022-09-11T06:26:36.343Z,36.83
2022-09-11T06:29:07.691Z,38.60
2022-09-11T06:31:39.030Z,37.30
2022-09-11T06:34:09.306Z,38.30
2022-09-11T06:36:37.448Z,37.50
2022-09-11T06:39:05.738Z,35.23
2022-09-11T06:41:38.728Z,38.60
2022-09-11T06:44:10.240Z,36.60
2022-09-11T06:46:41.639Z,38.07
2022-09-11T06:49:09.418Z,38.77
2022-09-11T06:51:37.726Z,35.30
2022-09-11T06:54:05.819Z,38.53
2022-09-11T06:56:39.854Z,36.40
2022-09-11T06:59:10.097Z,40.00
2022-09-11T07:01:44.384Z,37.43
2022-09-11T07:04:17.546Z,39.03
2022-09-11T07:06:48.475Z,37.37
2022-09-11T07:09:16.419Z,37.43
2022-09-11T07:11:46.961Z,34.47
2022-09-11T07:14:14.775Z,37.40
2022-09-11T07:16:54.904Z,40.37
2022-09-11T07:19:24.809Z,39.90
2022-09-11T07:21:52.683Z,37.20
2022-09-11T07:24:20.682Z,37.60
2022-09-11T07:26:50.563Z,44.77
2022-09-11T07:29:18.883Z,43.20
2022-09-11T07:31:47.993Z,41.80
2022-09-11T07:34:15.816Z,42.23
2022-09-11T07:36:47.496Z,37.70
2022-09-11T07:39:15.282Z,36.27
2022-09-11T07:41:53.298Z,32.73
2022-09-11T07:44:22.749Z,36.20
2022-09-11T07:46:54.166Z,33.23
2022-09-11T07:49:24.102Z,33.27
2022-09-11T07:51:52.365Z,33.60
2022-09-11T07:54:20.138Z,34.20
2022-09-11T07:56:48.320Z,31.70
2022-09-11T07:59:18.190Z,32.97
2022-09-11T08:01:46.035Z,29.63
2022-09-11T08:04:15.261Z,35.43
2022-09-11T08:06:43.916Z,30.17
2022-09-11T08:09:14.964Z,33.17
2022-09-11T08:11:55.613Z,30.17
2022-09-11T08:14:32.455Z,31.30
2022-09-11T08:17:00.287Z,32.03
2022-09-11T08:19:37.026Z,31.17
2022-09-11T08:22:04.873Z,29.20
2022-09-11T08:24:32.687Z,29.97
2022-09-11T08:27:05.198Z,27.27
2022-09-11T08:29:33.032Z,29.97
2022-09-11T08:32:02.502Z,27.87
2022-09-11T08:34:39.188Z,31.90
2022-09-11T08:37:14.574Z,32.70
2022-09-11T08:39:42.430Z,30.53
2022-09-11T08:42:17.195Z,32.10
2022-09-11T08:44:48.809Z,33.87
2022-09-11T08:47:21.802Z,33.70
2022-09-11T08:50:05.399Z,33.57
2022-09-11T08:52:35.818Z,30.23
2022-09-11T08:55:09.375Z,29.87
2022-09-11T08:57:46.490Z,29.93
2022-09-11T09:00:23.039Z,31.50
2022-09-11T09:03:30.119Z,30.07
2022-09-11T09:06:17.126Z,29.80
2022-09-11T09:08:54.285Z,31.10
2022-09-11T09:11:29.819Z,28.73
2022-09-11T09:14:22.348Z,30.60
2022-09-11T09:16:54.839Z,29.90
2022-09-11T09:19:27.896Z,30.67
2022-09-11T09:22:08.816Z,29.73
2022-09-11T09:24:43.975Z,31.83
2022-09-11T09:27:18.298Z,28.97
2022-09-11T09:29:48.982Z,26.97
2022-09-11T09:32:23.970Z,29.83
2022-09-11T09:34:56.316Z,27.17
2022-09-11T09:37:26.930Z,27.13
2022-09-11T09:39:57.903Z,29.20
2022-09-11T09:43:10.962Z,27.27
2022-09-11T09:46:00.722Z,24.50
2022-09-11T09:48:34.404Z,24.70
2022-09-11T09:51:05.544Z,25.30
2022-09-11T09:53:43.947Z,23.63
2022-09-11T09:56:16.922Z,26.43
2022-09-11T09:58:56.383Z,21.00
2022-09-11T10:01:44.801Z,26.23
2022-09-11T10:04:19.013Z,26.07
2022-09-11T10:06:48.929Z,23.37
2022-09-11T10:09:24.354Z,24.63
2022-09-11T10:12:00.437Z,22.33
2022-09-11T10:14:51.195Z,23.60
2022-09-11T10:17:24.803Z,26.23
2022-09-11T10:19:59.375Z,22.60
2022-09-11T10:22:32.308Z,21.70
2022-09-11T10:25:26.324Z,22.77
2022-09-11T10:28:02.185Z,20.90
2022-09-11T10:30:44.692Z,24.53
2022-09-11T10:33:21.496Z,21.47
2022-09-11T10:35:55.037Z,19.60
2022-09-11T10:38:28.684Z,22.60
2022-09-11T10:41:07.758Z,19.43
2022-09-11T10:43:47.492Z,25.43
2022-09-11T10:46:43.587Z,21.10
2022-09-11T10:49:20.274Z,22.03
2022-09-11T10:52:02.384Z,23.30
2022-09-11T10:55:00.019Z,23.73
2022-09-11T10:57:39.853Z,25.00
2022-09-11T11:00:15.119Z,18.10
2022-09-11T11:02:46.016Z,24.00
2022-09-11T11:05:21.885Z,23.23
2022-09-11T11:08:11.810Z,24.63
2022-09-11T11:10:59.063Z,24.07
2022-09-11T11:13:49.976Z,25.27
2022-09-11T11:16:23.581Z,19.57
2022-09-11T11:19:06.622Z,29.83
2022-09-11T11:21:49.108Z,27.07
2022-09-11T11:24:33.319Z,32.87
2022-09-11T11:27:16.930Z,26.90
2022-09-11T11:30:00.507Z,26.10
2022-09-11T11:32:51.805Z,28.00
2022-09-11T11:35:23.705Z,22.00
2022-09-11T11:37:56.663Z,25.93
2022-09-11T11:40:30.239Z,27.23
2022-09-11T11:43:04.486Z,26.60
2022-09-11T11:45:37.585Z,27.60
2022-09-11T11:48:14.599Z,33.47
2022-09-11T11:50:45.478Z,29.30
2022-09-11T11:53:22.909Z,26.50
2022-09-11T11:56:09.100Z,28.67
2022-09-11T11:58:48.160Z,28.70
2022-09-11T12:01:25.250Z,30.83
2022-09-11T12:04:02.630Z,27.67
2022-09-11T12:06:33.502Z,27.43
2022-09-11T12:09:09.058Z,27.13
2022-09-11T12:11:37.809Z,24.40
2022-09-11T12:14:07.974Z,27.30
2022-09-11T12:16:37.753Z,28.07
2022-09-11T12:19:16.658Z,25.97
2022-09-11T12:22:06.588Z,25.60
2022-09-11T12:24:58.564Z,22.83
2022-09-11T12:28:11.197Z,21.60
2022-09-11T12:31:08.821Z,21.17
2022-09-11T12:33:57.583Z,18.47
2022-09-11T12:36:38.535Z,21.37
2022-09-11T12:39:19.115Z,19.00
2022-09-11T12:41:47.320Z,20.77
2022-09-11T12:44:32.831Z,21.97
2022-09-11T12:47:13.498Z,16.53
2022-09-11T12:49:51.605Z,22.47
2022-09-11T12:52:37.420Z,23.73
2022-09-11T12:55:29.030Z,26.20
2022-09-11T12:57:57.973Z,21.70
2022-09-11T13:00:36.506Z,21.33
2022-09-11T13:03:05.885Z,23.43
2022-09-11T13:05:38.091Z,18.90
2022-09-11T13:08:10.880Z,18.13
2022-09-11T13:10:40.192Z,20.00
2022-09-11T13:13:43.076Z,21.03
2022-09-11T13:16:25.386Z,19.20
2022-09-11T13:18:57.803Z,21.00
2022-09-11T13:21:27.703Z,19.50
2022-09-11T13:24:00.612Z,20.03
2022-09-11T13:26:31.435Z,19.67
2022-09-11T13:29:01.355Z,18.73
2022-09-11T13:31:35.506Z,19.17
2022-09-11T13:34:05.330Z,18.77
2022-09-11T13:36:37.957Z,18.90
2022-09-11T13:39:07.114Z,20.10
2022-09-11T13:41:39.172Z,18.30
2022-09-11T13:44:13.085Z,18.23
2022-09-11T13:46:51.750Z,19.43
2022-09-11T13:49:36.113Z,14.30
2022-09-11T13:52:07.876Z,16.70
2022-09-11T13:54:38.884Z,17.67
2022-09-11T13:57:14.162Z,15.87
2022-09-11T13:59:50.393Z,17.03
2022-09-11T14:02:40.654Z,16.27
2022-09-11T14:05:15.925Z,17.07
2022-09-11T14:07:58.714Z,18.00
2022-09-11T14:10:32.816Z,16.63
2022-09-11T14:13:12.490Z,19.43
2022-09-11T14:15:43.160Z,15.50
2022-09-11T14:18:22.272Z,17.20
2022-09-11T14:20:50.440Z,17.37
2022-09-11T14:23:24.953Z,18.17
2022-09-11T14:26:07.766Z,17.73
2022-09-11T14:28:41.648Z,15.43
2022-09-11T14:31:13.870Z,17.47
2022-09-11T14:33:42.366Z,18.30
2022-09-11T14:36:19.431Z,16.37
2022-09-11T14:38:49.015Z,16.57
2022-09-11T14:41:16.980Z,15.87
2022-09-11T14:43:49.295Z,16.60
2022-09-11T14:46:17.511Z,15.33
2022-09-11T14:48:45.500Z,16.67
2022-09-11T14:51:13.987Z,14.53
2022-09-11T14:53:43.229Z,14.17
2022-09-11T14:56:12.977Z,14.63
2022-09-11T14:58:40.908Z,12.67
2022-09-11T15:01:13.609Z,12.73
2022-09-11T15:03:41.718Z,13.70
2022-09-11T15:06:15.497Z,15.73
2022-09-11T15:08:43.380Z,13.70
2022-09-11T15:11:12.667Z,14.10
2022-09-11T15:13:57.901Z,11.57
2022-09-11T15:16:28.908Z,13.87
2022-09-11T15:18:56.761Z,14.83
2022-09-11T15:21:24.721Z,11.70
2022-09-11T15:23:52.836Z,12.20
2022-09-11T15:26:22.296Z,10.87
2022-09-11T15:28:51.663Z,12.47
2022-09-11T15:31:19.752Z,11.67
2022-09-11T15:33:51.345Z,12.83
2022-09-11T15:36:20.375Z,12.97
2022-09-11T15:38:54.527Z,11.73
2022-09-11T15:41:25.307Z,12.27
2022-09-11T15:43:53.257Z,12.70
2022-09-11T15:46:22.783Z,11.90
2022-09-11T15:48:51.022Z,10.10
2022-09-11T15:51:20.814Z,10.90
2022-09-11T15:53:49.255Z,10.53
2022-09-11T15:56:25.210Z,10.20
2022-09-11T15:58:59.504Z,10.60
2022-09-11T16:01:28.802Z,11.17
2022-09-11T16:03:59.164Z,10.30
2022-09-11T16:06:29.962Z,9.83
2022-09-11T16:08:59.475Z,10.37
2022-09-11T16:11:27.860Z,10.30
2022-09-11T16:13:57.217Z,9.60
2022-09-11T16:16:25.690Z,10.73
2022-09-11T16:18:54.303Z,10.47
2022-09-11T16:21:23.178Z,9.03
2022-09-11T16:23:55.883Z,9.10
2022-09-11T16:26:27.643Z,9.70
2022-09-11T16:28:57.013Z,9.23
2022-09-11T16:31:24.958Z,9.63
2022-09-11T16:33:56.868Z,9.53
2022-09-11T16:36:25.303Z,9.77
2022-09-11T16:38:55.055Z,10.43
2022-09-11T16:41:23.764Z,9.80
2022-09-11T16:43:53.566Z,9.33
2022-09-11T16:46:24.664Z,8.07
2022-09-11T16:48:54.540Z,10.50
2022-09-11T16:51:25.177Z,10.00
2022-09-11T16:53:53.530Z,9.83
2022-09-11T16:56:23.211Z,9.00
2022-09-11T16:58:51.590Z,8.07
2022-09-11T17:01:23.184Z,9.13
2022-09-11T17:03:53.099Z,9.73
2022-09-11T17:06:22.953Z,8.80
2022-09-11T17:08:51.881Z,9.23
2022-09-11T17:11:22.095Z,9.90
2022-09-11T17:13:50.606Z,9.40
2022-09-11T17:16:20.798Z,7.67
2022-09-11T17:18:53.515Z,8.20
2022-09-11T17:21:24.191Z,9.07
2022-09-11T17:23:53.965Z,8.37
2022-09-11T17:26:23.511Z,7.87
2022-09-11T17:28:52.940Z,8.90
2022-09-11T17:31:21.645Z,8.63
2022-09-11T17:33:51.408Z,14.80
2022-09-11T17:36:32.123Z,9.53
2022-09-11T17:39:00.240Z,8.10
2022-09-11T17:41:28.936Z,8.13
2022-09-11T17:43:58.230Z,9.53
2022-09-11T17:46:26.355Z,9.33
2022-09-11T17:48:56.148Z,9.23
2022-09-11T17:51:26.528Z,9.83
2022-09-11T17:53:56.780Z,9.40
2022-09-11T17:56:25.878Z,9.57
2022-09-11T17:58:55.558Z,9.43
2022-09-11T18:01:25.034Z,10.10
2022-09-11T18:03:53.846Z,10.30
2022-09-11T18:06:26.063Z,11.77
2022-09-11T18:08:56.641Z,11.03
2022-09-11T18:11:25.085Z,12.93
2022-09-11T18:13:54.546Z,13.50
2022-09-11T18:16:22.697Z,13.77
2022-09-11T18:18:51.502Z,11.23
2022-09-11T18:21:19.483Z,11.90
2022-09-11T18:23:49.824Z,11.57
2022-09-11T18:26:23.081Z,11.63
2022-09-11T18:28:51.641Z,12.00
2022-09-11T18:31:20.146Z,12.17
2022-09-11T18:33:54.573Z,12.03
2022-09-11T18:36:23.575Z,12.17
2022-09-11T18:38:53.461Z,11.87
2022-09-11T18:41:22.755Z,12.57
2022-09-11T18:43:54.899Z,11.63
2022-09-11T18:46:25.548Z,11.70
2022-09-11T18:48:55.992Z,12.50
2022-09-11T18:51:25.812Z,12.27
2022-09-11T18:53:55.959Z,11.93
2022-09-11T18:56:27.211Z,13.00
2022-09-11T18:58:56.057Z,12.60
2022-09-11T19:01:26.499Z,12.27
2022-09-11T19:03:55.483Z,12.13
2022-09-11T19:06:25.641Z,14.07
2022-09-11T19:08:56.326Z,13.07
2022-09-11T19:11:26.434Z,12.23
2022-09-11T19:13:56.927Z,12.90
2022-09-11T19:16:25.019Z,13.30
2022-09-11T19:18:53.178Z,13.07
2022-09-11T19:21:23.189Z,12.83
2022-09-11T19:23:55.653Z,13.00
2022-09-11T19:26:26.877Z,12.77
2022-09-11T19:28:56.944Z,14.50
2022-09-11T19:31:28.421Z,15.20
2022-09-11T19:33:57.843Z,13.43
2022-09-11T19:36:28.254Z,14.63
2022-09-11T19:39:00.554Z,14.37
2022-09-11T19:41:31.938Z,14.87
2022-09-11T19:44:01.547Z,12.60
2022-09-11T19:46:31.240Z,14.70
2022-09-11T19:49:00.918Z,14.20
2022-09-11T19:51:31.002Z,13.83
2022-09-11T19:54:00.714Z,13.47
2022-09-11T19:56:31.441Z,13.50
2022-09-11T19:59:00.277Z,14.93
2022-09-11T20:01:30.125Z,13.87
2022-09-11T20:04:00.518Z,13.43
2022-09-11T20:06:30.636Z,12.73
2022-09-11T20:09:26.868Z,13.17
2022-09-11T20:11:48.955Z,13.40
2022-09-11T20:14:17.228Z,13.17
2022-09-11T20:16:45.490Z,13.50
2022-09-11T20:19:14.894Z,13.90
2022-09-11T20:21:43.364Z,12.97
2022-09-11T20:24:11.607Z,12.33
2022-09-11T20:26:39.618Z,12.37
2022-09-11T20:29:13.882Z,14.53
2022-09-11T20:31:50.502Z,13.13
2022-09-11T20:34:19.583Z,12.27
2022-09-11T20:36:48.291Z,13.40
2022-09-11T20:39:17.500Z,14.83
2022-09-11T20:41:45.555Z,13.50
2022-09-11T20:44:14.875Z,12.30
2022-09-11T20:46:43.713Z,14.93
2022-09-11T20:49:12.915Z,15.07
2022-09-11T20:51:41.166Z,14.67
2022-09-11T20:54:09.342Z,14.20
2022-09-11T20:56:37.916Z,14.57
2022-09-11T20:59:06.156Z,12.87
2022-09-11T21:01:36.164Z,12.30
2022-09-11T21:04:05.725Z,15.00
2022-09-11T21:06:36.007Z,13.37
2022-09-11T21:09:06.963Z,14.13
2022-09-11T21:11:35.997Z,14.20
2022-09-11T21:14:11.967Z,14.40
2022-09-11T21:17:37.543Z,13.80
2022-09-11T21:23:49.107Z,15.10
2022-09-11T21:26:20.911Z,15.03
2022-09-11T21:28:53.575Z,15.03
2022-09-11T21:31:26.931Z,12.60
2022-09-11T21:33:56.202Z,13.97
2022-09-11T21:36:26.321Z,15.37
2022-09-11T21:39:01.892Z,12.50
2022-09-11T21:41:29.757Z,15.10
2022-09-11T21:43:57.545Z,12.77
2022-09-11T21:46:25.724Z,13.60
2022-09-11T21:48:53.690Z,15.50
2022-09-11T21:51:25.460Z,13.80
2022-09-11T21:53:58.111Z,14.73
2022-09-11T21:56:35.652Z,13.47
2022-09-11T21:59:03.484Z,13.43
2022-09-11T22:01:32.057Z,13.50
2022-09-11T22:04:01.002Z,13.73
2022-09-11T22:06:42.306Z,12.60
2022-09-11T22:09:10.170Z,13.53
2022-09-11T22:11:40.123Z,13.20
2022-09-11T22:14:13.009Z,13.70
2022-09-11T22:16:40.919Z,14.10
2022-09-11T22:19:11.786Z,13.60
2022-09-11T22:21:41.295Z,14.47
2022-09-11T22:24:11.514Z,13.60
2022-09-11T22:26:39.343Z,14.83
2022-09-11T22:29:08.227Z,14.47
2022-09-11T22:31:36.100Z,14.37
2022-09-11T22:34:04.461Z,15.17
2022-09-11T22:36:32.607Z,15.40
2022-09-11T22:39:04.782Z,14.67
2022-09-11T22:41:32.673Z,13.43
2022-09-11T22:44:09.946Z,11.80
2022-09-11T22:46:40.667Z,16.57
2022-09-11T22:49:18.154Z,14.07
2022-09-11T22:51:45.969Z,15.60
2022-09-11T22:54:30.511Z,14.77
2022-09-11T22:56:58.347Z,14.80
2022-09-11T22:59:28.669Z,14.20
2022-09-11T23:01:56.950Z,15.20
2022-09-11T23:04:24.846Z,14.87
2022-09-11T23:07:12.277Z,14.37
2022-09-11T23:09:41.421Z,15.33
2022-09-11T23:12:16.382Z,14.50
2022-09-11T23:14:44.195Z,15.00
2022-09-11T23:17:12.054Z,13.57
2022-09-11T23:19:39.849Z,15.10
2022-09-11T23:22:07.664Z,15.00
2022-09-11T23:24:35.599Z,13.63
2022-09-11T23:27:10.040Z,14.93
2022-09-11T23:29:39.967Z,15.00
2022-09-11T23:32:10.292Z,14.43
2022-09-11T23:34:40.873Z,15.10
2022-09-11T23:37:10.941Z,13.47
2022-09-11T23:39:38.755Z,14.07
2022-09-11T23:42:08.080Z,14.27
2022-09-11T23:44:35.913Z,13.93
2022-09-11T23:47:06.412Z,14.33
2022-09-11T23:49:36.794Z,14.27
2022-09-11T23:52:05.850Z,14.53
2022-09-11T23:54:33.755Z,13.97
2022-09-11T23:57:05.554Z,14.93
2022-09-11T23:59:36.169Z,14.10
